Time;durP1;ratioP1;P1;durP2;ratioP2;P2;SDS_P1;SDS_P2;PMS_P1;PMS_P2;Temp;Humidity;BMP_temperature;BMP_pressure;BME280_temperature;BME280_humidity;BME280_pressure;Samples;Min_cycle;Max_cycle;Signal;HPM_P1;HPM_P2
2022/07/27 02:47:08;;;;;;;1.13;0.32;;;19.90;83.20;;;;;;5471040;23;93648;-71
2022/07/27 02:49:34;;;;;;;3.10;0.30;;;19.80;83.80;;;;;;4895685;28;91982;-69
2022/07/27 02:51:59;;;;;;;2.35;0.30;;;19.80;82.90;;;;;;4895022;28;92102;-70
2022/07/27 02:54:25;;;;;;;3.42;0.20;;;19.80;83.00;;;;;;4895663;28;91925;-69
2022/07/27 02:56:52;;;;;;;1.98;0.32;;;19.70;81.90;;;;;;4895809;28;91920;-72
2022/07/27 02:59:19;;;;;;;4.07;0.20;;;19.70;82.70;;;;;;4896436;28;92076;-70
2022/07/27 03:01:45;;;;;;;1.65;0.22;;;19.70;82.90;;;;;;4895813;28;92212;-70
2022/07/27 03:04:11;;;;;;;2.38;0.57;;;19.60;82.00;;;;;;4895303;28;94182;-70
2022/07/27 03:06:37;;;;;;;2.30;0.30;;;19.60;82.50;;;;;;4895380;28;93116;-70
2022/07/27 03:09:03;;;;;;;1.63;0.32;;;19.60;82.30;;;;;;4895825;28;91976;-69
2022/07/27 03:11:29;;;;;;;1.58;0.75;;;19.60;82.50;;;;;;4898929;28;92545;-69
2022/07/27 03:13:55;;;;;;;2.65;0.30;;;19.60;83.20;;;;;;4898593;28;91956;-70
2022/07/27 03:16:21;;;;;;;1.83;0.20;;;19.60;82.40;;;;;;4898019;28;94184;-70
2022/07/27 03:18:46;;;;;;;3.10;0.20;;;19.60;82.00;;;;;;4899174;28;91634;-70
2022/07/27 03:21:12;;;;;;;1.50;0.30;;;19.60;81.70;;;;;;4899407;28;91305;-71
2022/07/27 03:23:38;;;;;;;1.65;0.25;;;19.70;82.40;;;;;;4898189;28;92307;-70
2022/07/27 03:26:04;;;;;;;2.88;0.30;;;19.70;81.50;;;;;;4898785;28;92722;-69
2022/07/27 03:28:30;;;;;;;1.35;0.32;;;19.60;81.70;;;;;;4898570;28;93207;-69
2022/07/27 03:30:56;;;;;;;3.05;0.20;;;19.60;81.30;;;;;;4899124;28;92554;-69
2022/07/27 03:33:22;;;;;;;1.70;0.20;;;19.70;81.50;;;;;;4898196;28;92080;-71
2022/07/27 03:35:48;;;;;;;1.30;0.20;;;19.70;81.00;;;;;;4898107;28;92404;-69
2022/07/27 03:38:13;;;;;;;2.00;0.22;;;19.70;81.10;;;;;;4898483;28;92030;-73
2022/07/27 03:40:40;;;;;;;1.52;0.20;;;19.70;80.80;;;;;;4898983;28;92087;-69
2022/07/27 03:43:06;;;;;;;1.02;0.30;;;19.70;80.80;;;;;;4897976;28;92031;-70
2022/07/27 03:45:32;;;;;;;1.85;0.30;;;19.70;80.80;;;;;;4898302;28;91781;-69
2022/07/27 03:47:57;;;;;;;1.42;0.60;;;19.60;81.10;;;;;;4897911;28;92069;-71
2022/07/27 03:50:23;;;;;;;1.38;0.30;;;19.60;81.50;;;;;;4898277;28;91995;-69
2022/07/27 03:52:50;;;;;;;1.00;0.22;;;19.70;80.90;;;;;;4897138;28;94380;-70
2022/07/27 03:55:16;;;;;;;2.60;0.20;;;19.70;81.30;;;;;;4897144;28;93572;-70
2022/07/27 03:57:42;;;;;;;2.40;0.55;;;19.70;81.30;;;;;;4898432;28;91993;-69
2022/07/27 04:00:11;;;;;;;1.42;0.20;;;19.70;81.60;;;;;;4898134;28;92140;-72
2022/07/27 04:02:37;;;;;;;1.75;0.32;;;19.60;81.80;;;;;;4898287;28;93148;-70
2022/07/27 04:05:03;;;;;;;2.10;0.28;;;19.60;82.00;;;;;;4903078;28;92192;-71
2022/07/27 04:07:29;;;;;;;1.10;0.20;;;19.70;81.80;;;;;;4913214;28;92243;-72
2022/07/27 04:09:55;;;;;;;1.73;0.20;;;19.60;82.30;;;;;;4916140;28;90589;-71
2022/07/27 04:12:20;;;;;;;1.25;0.38;;;19.60;81.70;;;;;;4897079;28;92233;-69
2022/07/27 04:14:46;;;;;;;3.28;0.30;;;19.60;82.50;;;;;;4897402;28;92217;-69
2022/07/27 04:17:12;;;;;;;7.13;0.50;;;19.60;82.70;;;;;;4897440;28;92964;-69
2022/07/27 04:19:37;;;;;;;2.22;0.73;;;19.60;82.10;;;;;;4908113;28;92018;-71
2022/07/27 04:22:03;;;;;;;3.30;0.28;;;19.70;81.70;;;;;;4914869;28;92726;-69
2022/07/27 04:24:29;;;;;;;3.55;0.30;;;19.70;81.10;;;;;;4917070;28;92307;-69
2022/07/27 04:26:54;;;;;;;1.40;0.40;;;19.70;82.10;;;;;;4916789;28;91900;-71
2022/07/27 04:29:20;;;;;;;2.58;0.52;;;19.70;81.60;;;;;;4916665;28;92585;-72
2022/07/27 04:31:46;;;;;;;3.22;0.32;;;19.70;81.90;;;;;;4916338;28;93077;-71
2022/07/27 04:34:12;;;;;;;2.95;0.50;;;19.70;82.10;;;;;;4916850;28;91584;-69
2022/07/27 04:36:38;;;;;;;1.42;0.30;;;19.80;82.00;;;;;;4906319;28;92442;-71
2022/07/27 04:39:04;;;;;;;2.70;0.25;;;19.80;82.10;;;;;;4896992;28;91546;-69
2022/07/27 04:41:30;;;;;;;1.55;0.25;;;19.90;82.30;;;;;;4896634;28;93592;-70
2022/07/27 04:43:57;;;;;;;3.90;0.30;;;20.20;81.00;;;;;;4897099;28;93849;-70
2022/07/27 04:46:23;;;;;;;1.17;0.22;;;20.30;80.00;;;;;;4896681;28;92100;-70
2022/07/27 04:48:49;;;;;;;1.65;0.38;;;20.40;79.70;;;;;;4897067;28;92006;-69
2022/07/27 04:51:15;;;;;;;1.33;0.43;;;20.40;79.20;;;;;;4897552;28;92709;-70
2022/07/27 04:53:41;;;;;;;3.33;0.35;;;20.50;78.90;;;;;;4879572;28;93858;-69
2022/07/27 04:56:07;;;;;;;2.80;0.32;;;20.60;79.00;;;;;;4897558;28;91967;-69
2022/07/27 04:58:33;;;;;;;2.15;0.35;;;20.60;78.80;;;;;;4896792;28;91384;-73
2022/07/27 05:00:59;;;;;;;2.90;0.25;;;20.60;78.70;;;;;;4896821;28;92737;-69
2022/07/27 05:03:24;;;;;;;3.92;0.32;;;20.50;78.00;;;;;;4896448;28;92108;-71
2022/07/27 05:05:50;;;;;;;1.95;0.50;;;20.40;79.70;;;;;;4896378;28;93064;-69
2022/07/27 05:08:17;;;;;;;1.67;0.47;;;20.30;78.90;;;;;;4897660;28;92083;-69
2022/07/27 05:10:42;;;;;;;1.52;0.32;;;20.30;79.70;;;;;;4905479;28;92769;-73
2022/07/27 05:13:08;;;;;;;5.88;0.50;;;20.50;79.00;;;;;;4915101;28;93422;-70
2022/07/27 05:15:34;;;;;;;2.05;0.47;;;20.90;77.50;;;;;;4916551;28;92516;-69
2022/07/27 05:17:59;;;;;;;2.67;0.43;;;21.70;76.90;;;;;;4916054;28;92121;-71
2022/07/27 05:20:25;;;;;;;3.08;0.38;;;22.70;75.20;;;;;;4915717;28;92278;-70
2022/07/27 05:22:51;;;;;;;3.35;0.35;;;23.40;72.90;;;;;;4916263;28;91878;-71
2022/07/27 05:25:17;;;;;;;2.58;0.22;;;24.10;69.80;;;;;;4916379;28;92347;-70
2022/07/27 05:27:42;;;;;;;3.53;0.40;;;24.40;66.80;;;;;;4916123;28;92423;-72
2022/07/27 05:30:09;;;;;;;3.70;0.43;;;24.70;65.80;;;;;;4914754;28;94099;-70
2022/07/27 05:32:35;;;;;;;1.08;0.30;;;26.00;63.80;;;;;;4915312;28;93199;-71
2022/07/27 05:35:01;;;;;;;6.07;0.47;;;26.80;61.50;;;;;;4915358;28;92088;-73
2022/07/27 05:37:27;;;;;;;1.75;0.40;;;27.90;58.30;;;;;;4915550;28;92017;-70
2022/07/27 05:39:52;;;;;;;2.13;0.63;;;28.10;58.50;;;;;;4916078;28;92280;-69
2022/07/27 05:42:18;;;;;;;3.30;0.88;;;29.60;55.00;;;;;;4915400;28;91950;-70
2022/07/27 05:44:43;;;;;;;2.33;0.85;;;30.50;53.20;;;;;;4915430;28;92079;-71
2022/07/27 05:47:09;;;;;;;1.50;0.60;;;31.00;50.90;;;;;;4915490;28;91310;-70
2022/07/27 05:49:35;;;;;;;2.45;0.57;;;30.30;51.40;;;;;;4914942;28;92033;-73
2022/07/27 05:52:01;;;;;;;3.90;0.55;;;29.40;51.80;;;;;;4915262;28;91985;-72
2022/07/27 05:54:26;;;;;;;1.60;0.68;;;28.40;53.40;;;;;;4915405;28;92886;-70
2022/07/27 05:56:52;;;;;;;2.08;0.93;;;27.30;55.10;;;;;;4915708;28;92133;-71
2022/07/27 05:59:18;;;;;;;1.35;0.63;;;26.80;56.60;;;;;;4915180;28;92324;-73
2022/07/27 06:01:43;;;;;;;4.70;0.73;;;26.60;57.40;;;;;;4915014;28;92105;-71
2022/07/27 06:04:09;;;;;;;2.78;0.75;;;26.40;57.10;;;;;;4915034;28;92083;-71
2022/07/27 06:09:19;;;;;;;1.50;0.47;;;26.10;59.00;;;;;;4914837;28;92419;-71
2022/07/27 06:11:44;;;;;;;1.95;0.70;;;26.60;58.40;;;;;;4897367;28;92730;-70
2022/07/27 06:14:10;;;;;;;2.22;0.40;;;26.70;58.20;;;;;;4895972;28;92059;-70
2022/07/27 06:16:36;;;;;;;4.55;0.63;;;26.30;57.60;;;;;;4895721;28;92221;-71
2022/07/27 06:19:02;;;;;;;4.65;0.40;;;25.50;59.60;;;;;;4894979;28;93105;-70
2022/07/27 06:21:27;;;;;;;3.22;1.50;;;24.60;61.60;;;;;;4895682;28;93186;-71
2022/07/27 06:23:54;;;;;;;1.42;0.43;;;24.40;63.30;;;;;;4895449;28;91946;-69
2022/07/27 06:26:20;;;;;;;2.78;0.60;;;24.30;64.10;;;;;;4896139;28;92089;-72
2022/07/27 06:28:46;;;;;;;3.13;0.60;;;24.10;65.00;;;;;;4895582;28;93261;-69
2022/07/27 06:31:12;;;;;;;3.38;0.40;;;23.80;65.60;;;;;;4895639;28;92072;-71
2022/07/27 06:33:38;;;;;;;3.70;0.40;;;23.40;66.80;;;;;;4896109;28;91990;-70
2022/07/27 06:36:04;;;;;;;2.13;0.50;;;23.00;67.30;;;;;;4896540;28;91268;-71
2022/07/27 06:38:31;;;;;;;3.53;0.60;;;23.10;68.50;;;;;;4895595;28;92603;-71
2022/07/27 06:40:57;;;;;;;2.05;0.45;;;23.20;69.50;;;;;;4894989;28;92820;-70
2022/07/27 06:43:25;;;;;;;1.45;0.55;;;23.20;69.70;;;;;;4894706;28;93039;-71
2022/07/27 06:45:52;;;;;;;2.08;0.50;;;23.10;68.00;;;;;;4895117;28;91979;-71
2022/07/27 06:48:20;;;;;;;2.45;0.52;;;23.10;69.30;;;;;;4894460;28;92332;-70
2022/07/27 06:50:46;;;;;;;3.42;0.45;;;23.20;68.20;;;;;;4895174;28;92078;-71
2022/07/27 06:53:12;;;;;;;1.73;0.70;;;23.20;67.60;;;;;;4896234;28;93183;-71
2022/07/27 06:55:38;;;;;;;2.17;0.50;;;23.00;67.20;;;;;;4895648;28;91988;-73
2022/07/27 06:58:03;;;;;;;2.03;0.68;;;23.10;68.70;;;;;;4895269;28;92443;-69
2022/07/27 07:00:30;;;;;;;3.13;0.40;;;23.20;66.90;;;;;;4895621;28;91257;-70
2022/07/27 07:03:04;;;;;;;2.50;0.60;;;23.40;67.10;;;;;;4895752;28;92244;-70
2022/07/27 07:05:32;;;;;;;1.80;0.43;;;23.80;66.20;;;;;;4895411;28;92089;-70
2022/07/27 07:07:58;;;;;;;3.05;0.52;;;24.30;64.20;;;;;;4894594;28;92995;-69
2022/07/27 07:10:24;;;;;;;1.65;0.60;;;24.80;61.90;;;;;;4902014;28;92122;-74
2022/07/27 07:12:54;;;;;;;1.90;0.93;;;24.90;61.90;;;;;;4914435;28;92069;-69
2022/07/27 07:15:23;;;;;;;3.35;0.63;;;25.60;61.40;;;;;;4914171;28;92000;-70
2022/07/27 07:17:49;;;;;;;2.78;0.60;;;26.90;60.50;;;;;;4913764;28;93367;-71
2022/07/27 07:20:15;;;;;;;2.78;0.47;;;27.10;57.30;;;;;;4913507;28;93248;-69
2022/07/27 07:22:42;;;;;;;1.77;0.80;;;26.40;58.30;;;;;;4914408;28;92069;-70
2022/07/27 07:25:07;;;;;;;4.13;0.70;;;26.00;59.20;;;;;;4914564;28;91206;-71
2022/07/27 07:27:33;;;;;;;4.97;0.57;;;25.50;59.70;;;;;;4913072;28;91688;-72
2022/07/27 07:29:59;;;;;;;4.03;0.88;;;25.40;61.10;;;;;;4913891;28;93473;-70
2022/07/27 07:32:25;;;;;;;2.03;0.68;;;25.50;60.00;;;;;;4913776;28;92920;-69
2022/07/27 07:34:51;;;;;;;2.88;0.85;;;25.40;60.40;;;;;;4913955;28;92170;-70
2022/07/27 07:37:18;;;;;;;3.58;0.38;;;25.10;61.30;;;;;;4914155;28;92634;-71
2022/07/27 07:39:45;;;;;;;2.97;0.45;;;25.10;60.50;;;;;;4913016;28;92902;-71
2022/07/27 07:42:10;;;;;;;3.28;0.55;;;24.90;62.00;;;;;;4914714;28;92419;-69
2022/07/27 07:44:36;;;;;;;2.13;0.52;;;24.80;63.50;;;;;;4914377;28;92588;-71
2022/07/27 07:47:03;;;;;;;1.20;0.52;;;24.70;63.40;;;;;;4912790;28;95139;-70
2022/07/27 07:49:29;;;;;;;2.35;0.60;;;24.80;63.20;;;;;;4914149;28;92409;-70
2022/07/27 07:51:54;;;;;;;2.22;0.63;;;25.40;60.40;;;;;;4914216;28;92251;-69
2022/07/27 07:54:20;;;;;;;3.85;0.75;;;26.40;59.00;;;;;;4913556;28;92138;-71
2022/07/27 07:56:46;;;;;;;3.22;0.60;;;26.40;57.00;;;;;;4914279;28;92946;-69
2022/07/27 07:59:11;;;;;;;6.53;0.50;;;26.50;58.40;;;;;;4916720;28;92667;-70
2022/07/27 08:01:37;;;;;;;2.72;0.73;;;26.60;56.90;;;;;;4917137;28;91880;-72
2022/07/27 08:04:03;;;;;;;3.95;0.60;;;27.20;55.60;;;;;;4917013;28;92082;-71
2022/07/27 08:06:29;;;;;;;2.05;0.50;;;27.40;55.50;;;;;;4916626;28;92601;-72
2022/07/27 08:08:54;;;;;;;2.22;1.00;;;28.80;53.70;;;;;;4916604;28;92797;-70
2022/07/27 08:11:20;;;;;;;4.80;0.73;;;30.60;51.50;;;;;;4901570;28;92167;-70
2022/07/27 08:13:46;;;;;;;2.78;0.70;;;31.80;49.30;;;;;;4898082;28;91292;-69
2022/07/27 08:16:12;;;;;;;2.03;0.77;;;32.10;47.90;;;;;;4897272;28;92284;-70
2022/07/27 08:18:38;;;;;;;1.67;0.65;;;32.20;46.90;;;;;;4897924;28;91953;-70
2022/07/27 08:21:03;;;;;;;1.90;0.63;;;31.60;46.20;;;;;;4897301;28;93256;-71
2022/07/27 08:23:30;;;;;;;3.05;0.80;;;30.60;49.10;;;;;;4897853;28;92132;-69
2022/07/27 08:25:56;;;;;;;3.58;1.05;;;30.20;50.60;;;;;;4895972;28;92676;-71
2022/07/27 08:28:22;;;;;;;2.45;0.75;;;30.40;49.90;;;;;;4897181;28;92053;-70
2022/07/27 08:30:48;;;;;;;2.15;0.82;;;32.80;49.90;;;;;;4896771;28;92017;-72
2022/07/27 08:33:14;;;;;;;1.92;1.33;;;35.30;42.80;;;;;;4897445;28;92139;-71
2022/07/27 08:35:40;;;;;;;1.73;1.17;;;34.10;44.10;;;;;;4897284;28;92266;-70
2022/07/27 08:38:08;;;;;;;1.98;1.15;;;33.50;45.30;;;;;;4897425;28;92869;-71
2022/07/27 08:40:35;;;;;;;4.38;1.10;;;33.40;44.80;;;;;;4897286;28;92164;-70
2022/07/27 08:43:01;;;;;;;4.75;1.10;;;33.50;45.20;;;;;;4897685;28;92091;-71
2022/07/27 08:45:28;;;;;;;2.75;1.23;;;36.20;42.90;;;;;;4896663;28;93247;-70
2022/07/27 08:47:54;;;;;;;8.60;1.50;;;37.40;40.90;;;;;;4896262;28;92861;-70
2022/07/27 08:50:23;;;;;;;2.55;1.80;;;38.60;38.00;;;;;;4896976;28;92084;-73
2022/07/27 08:52:59;;;;;;;2.30;1.60;;;38.70;37.80;;;;;;4897110;28;92056;-72
2022/07/27 08:55:26;;;;;;;5.80;1.42;;;37.30;38.90;;;;;;4896881;28;93169;-71
2022/07/27 08:57:52;;;;;;;5.25;1.73;;;35.80;39.90;;;;;;4896736;28;92795;-69
2022/07/27 09:00:19;;;;;;;9.48;2.08;;;34.10;43.30;;;;;;4896914;28;92024;-71
2022/07/27 09:02:46;;;;;;;8.68;2.03;;;34.30;43.80;;;;;;4897409;28;91332;-71
2022/07/27 09:05:12;;;;;;;10.23;1.75;;;35.10;41.90;;;;;;4896368;28;92293;-72
2022/07/27 09:07:38;;;;;;;13.38;2.70;;;33.90;42.40;;;;;;4895996;28;92430;-72
2022/07/27 09:10:05;;;;;;;7.00;1.75;;;33.20;44.00;;;;;;4900487;28;93151;-72
2022/07/27 09:12:31;;;;;;;2.47;1.15;;;32.10;45.20;;;;;;4915937;28;91973;-71
2022/07/27 09:15:12;;;;;;;2.05;1.13;;;31.50;44.80;;;;;;4914940;28;93465;-71
2022/07/27 09:17:40;;;;;;;2.45;0.90;;;31.10;46.60;;;;;;4915243;28;92091;-71
2022/07/27 09:20:12;;;;;;;2.25;1.10;;;30.90;45.90;;;;;;4915886;28;92150;-70
2022/07/27 09:22:51;;;;;;;3.63;0.85;;;30.60;46.40;;;;;;4915502;28;92056;-70
2022/07/27 09:25:23;;;;;;;3.35;1.23;;;30.00;47.90;;;;;;4914900;28;92220;-69
2022/07/27 09:27:53;;;;;;;3.30;0.90;;;30.40;46.70;;;;;;4915994;28;92347;-70
2022/07/27 09:30:20;;;;;;;1.75;0.80;;;30.50;46.90;;;;;;4915808;28;92110;-70
2022/07/27 09:32:57;;;;;;;4.68;1.35;;;31.90;46.60;;;;;;4915142;28;92113;-74
2022/07/27 09:35:23;;;;;;;2.22;1.10;;;33.90;43.50;;;;;;4914366;28;94980;-71
2022/07/27 09:37:49;;;;;;;3.50;0.90;;;37.00;40.80;;;;;;4915241;28;92811;-70
2022/07/27 09:40:20;;;;;;;1.88;0.93;;;37.70;39.30;;;;;;4914428;28;92092;-70
2022/07/27 09:42:47;;;;;;;6.60;1.73;;;38.50;39.20;;;;;;4915911;28;92116;-71
2022/07/27 09:45:35;;;;;;;2.63;1.20;;;40.50;36.90;;;;;;4914881;28;93812;-70
2022/07/27 09:48:11;;;;;;;2.05;1.40;;;40.60;35.30;;;;;;4914335;28;92042;-71
2022/07/27 09:50:40;;;;;;;2.63;0.93;;;39.10;35.80;;;;;;4915473;28;91982;-74
2022/07/27 09:53:15;;;;;;;3.85;2.13;;;38.10;37.70;;;;;;4915684;28;91493;-70
2022/07/27 09:55:41;;;;;;;1.88;1.42;;;37.40;37.80;;;;;;4915580;28;92181;-72
2022/07/27 09:58:07;;;;;;;3.22;1.90;;;38.40;39.10;;;;;;4915164;28;92147;-72
2022/07/27 10:00:33;;;;;;;4.90;1.85;;;41.20;36.70;;;;;;4915373;28;93384;-72
2022/07/27 10:02:58;;;;;;;3.10;1.88;;;43.40;33.70;;;;;;4915018;28;92165;-72
2022/07/27 10:05:24;;;;;;;5.13;2.28;;;43.30;33.70;;;;;;4914479;28;93338;-71
2022/07/27 10:07:52;;;;;;;2.85;1.88;;;41.90;32.50;;;;;;4915304;28;92428;-70
2022/07/27 10:10:18;;;;;;;3.95;2.28;;;39.40;35.90;;;;;;4909342;28;92530;-72
2022/07/27 10:12:44;;;;;;;5.93;1.92;;;40.70;35.60;;;;;;4895032;28;92185;-70
2022/07/27 10:15:11;;;;;;;4.50;2.08;;;42.20;34.10;;;;;;4895623;28;94921;-68
2022/07/27 10:17:38;;;;;;;2.88;2.35;;;40.80;35.50;;;;;;4895855;28;91364;-69
2022/07/27 10:20:08;;;;;;;5.45;2.03;;;40.50;35.90;;;;;;4895056;28;91960;-73
2022/07/27 10:22:55;;;;;;;5.45;1.85;;;38.80;37.20;;;;;;4895806;28;92103;-71
2022/07/27 10:25:22;;;;;;;2.85;2.15;;;36.60;39.00;;;;;;4894816;28;93564;-71
2022/07/27 10:28:10;;;;;;;2.58;1.77;;;36.00;40.70;;;;;;4895064;28;93775;-70
2022/07/27 10:30:37;;;;;;;1.77;1.27;;;35.70;40.40;;;;;;4896035;28;92397;-72
2022/07/27 10:33:42;;;;;;;3.53;2.47;;;35.30;41.10;;;;;;4894542;28;92057;-70
2022/07/27 10:36:15;;;;;;;2.55;1.63;;;34.10;42.20;;;;;;4892862;28;93616;-70
2022/07/27 10:38:49;;;;;;;3.05;1.45;;;33.20;44.00;;;;;;4895614;28;92502;-71
2022/07/27 10:41:30;;;;;;;5.38;2.03;;;33.30;44.60;;;;;;4895442;28;92331;-70
2022/07/27 10:44:31;;;;;;;6.78;1.60;;;32.40;44.80;;;;;;4895732;28;91360;-69
2022/07/27 10:46:59;;;;;;;4.38;1.33;;;32.00;44.80;;;;;;4816002;29;93797;-71
2022/07/27 10:49:31;;;;;;;2.83;1.40;;;31.50;46.90;;;;;;4864252;28;92043;-70
2022/07/27 10:51:58;;;;;;;2.33;1.50;;;31.10;47.40;;;;;;4875836;28;93350;-70
2022/07/27 10:54:26;;;;;;;3.25;1.63;;;31.20;46.40;;;;;;4876873;28;92517;-70
2022/07/27 10:56:54;;;;;;;2.63;1.38;;;31.60;46.00;;;;;;4875710;28;94157;-71
2022/07/27 10:59:38;;;;;;;3.47;1.33;;;32.10;43.70;;;;;;4875887;28;92938;-70
2022/07/27 11:02:06;;;;;;;2.58;1.10;;;32.30;44.00;;;;;;4876472;28;92077;-70
2022/07/27 11:04:51;;;;;;;3.45;0.85;;;32.80;44.60;;;;;;4876265;28;91940;-69
2022/07/27 11:07:23;;;;;;;4.82;0.90;;;32.40;42.90;;;;;;4876020;28;92713;-73
2022/07/27 11:09:51;;;;;;;1.80;0.70;;;32.10;46.40;;;;;;4878843;28;93088;-69
2022/07/27 11:12:18;;;;;;;4.03;1.00;;;31.70;46.40;;;;;;4894477;28;92144;-71
2022/07/27 11:14:54;;;;;;;1.60;0.77;;;30.80;47.60;;;;;;4894921;28;92374;-71
2022/07/27 11:17:27;;;;;;;1.70;0.93;;;30.80;48.20;;;;;;4894482;28;93043;-72
2022/07/27 11:19:54;;;;;;;6.88;0.98;;;31.10;46.90;;;;;;4894321;28;93258;-72
2022/07/27 11:22:37;;;;;;;3.67;1.20;;;31.10;47.40;;;;;;4894908;28;92120;-70
2022/07/27 11:25:05;;;;;;;3.15;1.20;;;31.30;48.40;;;;;;4894764;28;92510;-71
2022/07/27 11:27:31;;;;;;;1.95;0.80;;;31.60;44.70;;;;;;4894359;28;95527;-71
2022/07/27 11:29:57;;;;;;;3.22;1.25;;;31.90;47.90;;;;;;4894542;28;92936;-70
2022/07/27 11:32:23;;;;;;;2.95;1.02;;;32.10;45.50;;;;;;4898308;28;91685;-70
2022/07/27 11:34:50;;;;;;;4.53;1.38;;;32.10;47.80;;;;;;4898658;28;91378;-70
2022/07/27 11:37:18;;;;;;;2.35;1.08;;;31.50;47.10;;;;;;4898439;28;92670;-70
2022/07/27 11:39:45;;;;;;;1.90;0.98;;;31.90;47.20;;;;;;4897938;28;92458;-70
2022/07/27 11:42:12;;;;;;;4.05;1.15;;;32.30;46.50;;;;;;4897933;28;93618;-71
2022/07/27 11:44:39;;;;;;;2.08;0.82;;;32.30;45.50;;;;;;4898721;28;91977;-70
2022/07/27 11:47:05;;;;;;;1.95;1.02;;;32.20;45.60;;;;;;4897497;28;94505;-70
2022/07/27 11:49:32;;;;;;;1.65;0.95;;;32.20;44.50;;;;;;4897522;28;92007;-70
2022/07/27 11:52:04;;;;;;;2.20;0.93;;;32.10;46.50;;;;;;4898380;28;92340;-71
2022/07/27 11:54:35;;;;;;;1.92;0.75;;;32.40;47.90;;;;;;4898044;28;92060;-70
2022/07/27 11:57:03;;;;;;;2.97;1.45;;;32.80;45.50;;;;;;4898372;28;92353;-70
2022/07/27 11:59:31;;;;;;;2.28;1.23;;;32.80;47.00;;;;;;4897508;28;91219;-71
2022/07/27 12:02:01;;;;;;;4.15;1.27;;;32.20;44.10;;;;;;4898085;28;92018;-70
2022/07/27 12:04:28;;;;;;;2.70;0.93;;;32.10;44.20;;;;;;4898320;28;91997;-71
2022/07/27 12:07:18;;;;;;;1.73;0.75;;;32.00;45.90;;;;;;4896475;28;94616;-70
2022/07/27 12:09:53;;;;;;;3.58;1.40;;;31.70;47.10;;;;;;4895181;28;93306;-71
2022/07/27 12:12:26;;;;;;;1.45;0.77;;;31.90;45.90;;;;;;4878717;28;92086;-70
2022/07/27 12:14:57;;;;;;;2.20;1.00;;;31.90;47.00;;;;;;4878278;28;92112;-71
2022/07/27 12:17:29;;;;;;;1.75;0.98;;;31.20;48.30;;;;;;4878387;28;91976;-70
2022/07/27 12:20:19;;;;;;;6.07;1.08;;;31.30;46.60;;;;;;4878172;28;92526;-69
2022/07/27 12:22:50;;;;;;;3.58;1.02;;;31.40;47.30;;;;;;4878461;28;92029;-71
2022/07/27 12:25:16;;;;;;;3.00;1.23;;;31.20;48.00;;;;;;4878838;28;91349;-69
2022/07/27 12:28:00;;;;;;;1.92;0.60;;;31.30;49.00;;;;;;4878582;28;93184;-70
2022/07/27 12:30:43;;;;;;;3.92;0.80;;;31.20;47.20;;;;;;4878070;28;92680;-70
2022/07/27 12:33:35;;;;;;;2.83;0.90;;;30.90;47.40;;;;;;4877832;28;92704;-70
2022/07/27 12:36:06;;;;;;;2.92;0.90;;;30.80;48.10;;;;;;4878015;28;91982;-70
2022/07/27 12:38:44;;;;;;;5.03;1.13;;;31.10;47.80;;;;;;4877589;28;92358;-70
2022/07/27 12:41:21;;;;;;;3.95;0.88;;;30.90;48.10;;;;;;4877705;28;94456;-71
2022/07/27 12:44:14;;;;;;;2.65;0.60;;;30.80;48.00;;;;;;4878304;28;92360;-70
2022/07/27 12:47:00;;;;;;;2.25;0.90;;;30.50;48.90;;;;;;4882987;28;91975;-70
2022/07/27 12:49:33;;;;;;;4.20;1.08;;;30.50;48.60;;;;;;4897084;28;92475;-70
2022/07/27 12:52:09;;;;;;;2.42;1.00;;;30.20;50.10;;;;;;4897618;28;93248;-69
2022/07/27 12:54:35;;;;;;;6.57;1.10;;;30.10;48.80;;;;;;4897279;28;92160;-69
2022/07/27 12:57:03;;;;;;;4.53;0.82;;;29.80;50.10;;;;;;4897055;28;91921;-70
2022/07/27 12:59:29;;;;;;;2.85;1.02;;;29.80;48.20;;;;;;4896084;28;94479;-70
2022/07/27 13:01:55;;;;;;;3.40;0.80;;;29.90;50.00;;;;;;4896111;28;92882;-70
2022/07/27 13:04:21;;;;;;;2.47;0.95;;;29.90;50.40;;;;;;4897196;28;92041;-71
2022/07/27 13:06:47;;;;;;;5.05;1.13;;;30.40;48.20;;;;;;4897031;28;91289;-71
2022/07/27 13:09:13;;;;;;;1.90;1.15;;;30.10;49.60;;;;;;4896212;28;92299;-70
2022/07/27 13:11:38;;;;;;;3.85;1.52;;;30.20;50.20;;;;;;4913861;28;92885;-70
2022/07/27 13:14:06;;;;;;;2.58;1.02;;;30.10;49.40;;;;;;4915884;28;92028;-73
2022/07/27 13:16:31;;;;;;;3.40;0.88;;;30.20;51.00;;;;;;4915822;28;91242;-71
2022/07/27 13:18:57;;;;;;;3.50;0.90;;;30.00;49.80;;;;;;4916023;28;92248;-69
2022/07/27 13:21:23;;;;;;;2.17;1.00;;;29.90;49.40;;;;;;4916115;28;92442;-72
2022/07/27 13:23:49;;;;;;;2.33;1.05;;;29.60;50.20;;;;;;4915238;28;92973;-71
2022/07/27 13:26:15;;;;;;;1.92;0.88;;;29.70;51.90;;;;;;4915664;28;92134;-71
2022/07/27 13:28:40;;;;;;;2.15;0.90;;;30.20;51.10;;;;;;4915619;28;92932;-69
2022/07/27 13:31:06;;;;;;;2.28;0.98;;;30.60;49.60;;;;;;4915660;28;92102;-70
2022/07/27 13:33:32;;;;;;;3.95;0.90;;;30.60;49.80;;;;;;4915603;28;92066;-71
2022/07/27 13:35:57;;;;;;;2.88;1.27;;;30.80;48.70;;;;;;4915399;28;92073;-71
2022/07/27 13:38:24;;;;;;;2.58;0.82;;;30.70;48.60;;;;;;4915105;28;92290;-70
2022/07/27 13:40:50;;;;;;;1.42;0.70;;;30.80;49.10;;;;;;4915574;28;91285;-71
2022/07/27 13:43:15;;;;;;;2.50;1.08;;;30.20;47.90;;;;;;4916347;28;92006;-70
2022/07/27 13:45:41;;;;;;;2.45;0.80;;;30.10;50.50;;;;;;4915764;28;92047;-70
2022/07/27 13:48:07;;;;;;;1.33;0.65;;;30.10;49.30;;;;;;4913870;28;94938;-72
2022/07/27 13:50:33;;;;;;;2.30;0.80;;;29.70;50.80;;;;;;4915289;28;92879;-70
2022/07/27 13:52:59;;;;;;;2.63;0.90;;;29.80;49.90;;;;;;4914903;28;93000;-71
2022/07/27 13:55:25;;;;;;;2.30;0.90;;;29.70;50.00;;;;;;4914338;28;92154;-70
2022/07/27 13:57:50;;;;;;;1.80;0.70;;;29.90;51.20;;;;;;4915469;28;92422;-72
2022/07/27 14:00:16;;;;;;;3.30;1.45;;;29.70;49.80;;;;;;4914719;28;92099;-69
2022/07/27 14:02:43;;;;;;;2.47;1.02;;;29.90;49.60;;;;;;4915703;28;92484;-72
2022/07/27 14:05:10;;;;;;;2.38;0.95;;;30.10;49.00;;;;;;4915320;28;91385;-72
2022/07/27 14:07:36;;;;;;;3.25;0.75;;;29.60;50.80;;;;;;4915039;28;92947;-69
2022/07/27 14:12:45;;;;;;;1.98;1.00;;;29.70;49.40;;;;;;4895470;28;93069;-70
2022/07/27 14:15:11;;;;;;;1.77;0.95;;;29.70;49.30;;;;;;4896005;28;92038;-70
2022/07/27 14:17:37;;;;;;;6.57;1.13;;;29.60;51.20;;;;;;4895473;28;92613;-69
2022/07/27 14:20:04;;;;;;;2.88;0.90;;;29.50;50.40;;;;;;4895560;28;93107;-69
2022/07/27 14:22:30;;;;;;;4.55;0.80;;;29.70;49.10;;;;;;4895530;28;92061;-72
2022/07/27 14:24:56;;;;;;;2.10;0.60;;;29.50;49.60;;;;;;4895965;28;92107;-70
2022/07/27 14:27:21;;;;;;;1.77;1.05;;;29.30;51.30;;;;;;4895790;28;92477;-70
2022/07/27 14:29:47;;;;;;;2.22;1.00;;;29.50;51.30;;;;;;4895999;28;91262;-71
2022/07/27 14:32:13;;;;;;;1.70;0.88;;;29.90;50.30;;;;;;4895739;28;92382;-70
2022/07/27 14:34:38;;;;;;;3.13;0.80;;;30.10;49.10;;;;;;4896233;28;92366;-71
2022/07/27 14:37:05;;;;;;;2.60;0.73;;;30.10;50.40;;;;;;4894640;28;93049;-71
2022/07/27 14:39:30;;;;;;;3.55;0.75;;;29.70;49.80;;;;;;4895164;28;92175;-72
2022/07/27 14:41:56;;;;;;;1.75;0.90;;;29.80;50.00;;;;;;4895775;28;91628;-70
2022/07/27 14:44:22;;;;;;;3.40;0.90;;;29.60;49.70;;;;;;4895651;28;92315;-69
2022/07/27 14:46:48;;;;;;;1.95;0.65;;;29.30;49.90;;;;;;4894420;28;91952;-69
2022/07/27 14:49:13;;;;;;;1.67;0.93;;;29.00;51.50;;;;;;4894672;28;92111;-70
2022/07/27 14:51:39;;;;;;;1.30;0.70;;;29.00;50.80;;;;;;4895044;28;92178;-71
2022/07/27 14:54:05;;;;;;;2.33;0.98;;;29.10;52.30;;;;;;4895918;28;91893;-71
2022/07/27 14:56:30;;;;;;;1.60;0.93;;;29.10;51.10;;;;;;4895269;28;92204;-70
2022/07/27 14:58:56;;;;;;;3.30;1.02;;;29.30;51.20;;;;;;4895608;28;92131;-69
2022/07/27 15:01:22;;;;;;;2.35;0.95;;;29.20;49.80;;;;;;4895080;28;92503;-72
2022/07/27 15:03:48;;;;;;;2.10;0.80;;;29.20;49.10;;;;;;4894916;28;92042;-70
2022/07/27 15:06:13;;;;;;;2.75;0.93;;;29.00;50.50;;;;;;4897115;28;91994;-70
2022/07/27 15:08:39;;;;;;;3.25;1.08;;;28.70;51.70;;;;;;4898314;28;92028;-72
2022/07/27 15:11:05;;;;;;;2.67;1.17;;;28.40;51.50;;;;;;4911233;28;91908;-71
2022/07/27 15:13:30;;;;;;;3.17;0.82;;;28.20;52.20;;;;;;4918062;28;91957;-70
2022/07/27 15:15:56;;;;;;;2.60;0.82;;;28.20;51.50;;;;;;4917707;28;91740;-71
2022/07/27 15:18:22;;;;;;;1.83;0.52;;;28.50;52.10;;;;;;4917581;28;92432;-70
2022/07/27 15:20:48;;;;;;;1.60;0.73;;;28.60;53.10;;;;;;4918022;28;91935;-70
2022/07/27 15:23:15;;;;;;;2.15;0.93;;;29.00;52.10;;;;;;4918394;28;92515;-70
2022/07/27 15:25:40;;;;;;;1.63;0.73;;;29.20;51.50;;;;;;4917283;28;94754;-70
2022/07/27 15:28:06;;;;;;;2.88;0.70;;;29.10;50.30;;;;;;4917060;28;92147;-70
2022/07/27 15:30:32;;;;;;;3.42;0.95;;;29.10;51.20;;;;;;4918149;28;92009;-71
2022/07/27 15:32:57;;;;;;;2.15;0.73;;;29.10;52.10;;;;;;4917109;28;92506;-70
2022/07/27 15:35:23;;;;;;;1.73;0.70;;;29.20;50.40;;;;;;4917283;28;93582;-70
2022/07/27 15:37:49;;;;;;;2.65;0.95;;;29.10;51.40;;;;;;4916977;28;92042;-72
2022/07/27 15:42:59;;;;;;;1.73;0.57;;;28.70;53.00;;;;;;4917568;28;91281;-72
2022/07/27 15:45:24;;;;;;;1.70;0.88;;;28.90;51.70;;;;;;4917537;28;93247;-73